Portada
METAR-TAF:

METAR-TAF

Aeroports :

El Oued, Algèria

latitud: 33-30-47N, longitud: 006-46-57E, altitud: 62 m

METAR: manca

Hora: 06:13 (05:13 UTC)

Pronòstic

L'informe es va fer fa 6 hores i 13 minuts, a les 23:00 UTC
Pronòstic vàlid del 14 a les 00 UTC al 14 a les 09 UTC
Vent 8 kt del Sud/Sud-Oest
Visibilitat 10 km o més
Escasses núvols a una alçada de 4000 ft
Evolucionant progressivament
l' 14 a les 01 UTC al 14 a les 03 UTC
Vent 14 kt del Oest
Probabilitat 40% :
Temporalment
l' 14 a les 02 UTC al 14 a les 06 UTC
Vent 15 kt del Oest amb ràfegues de 30 kt
Visibilitat: 5000 m
Escasses núvols a una alçada de 3300 ft, Cumulonimbus.
pluja

TAF: DAUO 132300Z 1400/1409 20008KT 9999 FEW040 BECMG 1401/1403 26014KT PROB40 TEMPO 1402/1406 26015G30KT 5000 -RA FEW033CB

Observacions i pronòstics meteorològics de més de 4000 aeroports (METAR i TAF).

Les estacions disponibles són els punts grocs i vermells al mapa.

Posi el ratolí al punt desitjat per veure el nom de l'estació.

Feu clic per veure les observacions i els pronòstics meteorològics.

Per canviar el mapa: feu clic els botons verds amb una creu de color negre per apropar; al botó verd amb un guió per allunyar la imatge; o en les fletxes verdes per a mapes adjacents.


METAR-TAF: